Time;durP1;ratioP1;P1;durP2;ratioP2;P2;SDS_P1;SDS_P2;PMS_P1;PMS_P2;Temp;Humidity;BMP_temperature;BMP_pressure;BME280_temperature;BME280_humidity;BME280_pressure;Samples;Min_cycle;Max_cycle;Signal;HPM_P1;HPM_P2
2023/06/23 00:00:43;;;;;;;77.57;32.53;;;;;;;;;;4970492;28;20055;-64
2023/06/23 00:03:09;;;;;;;76.80;31.73;;;;;;;;;;4970709;28;20398;-64
2023/06/23 00:05:36;;;;;;;83.43;32.43;;;;;;;;;;4960605;28;20182;-64
2023/06/23 00:08:02;;;;;;;55.67;28.33;;;;;;;;;;4959738;28;20067;-64
2023/06/23 00:10:28;;;;;;;79.30;33.17;;;;;;;;;;4970340;28;20062;-64
2023/06/23 00:12:54;;;;;;;91.30;36.93;;;;;;;;;;4970425;28;20489;-64
2023/06/23 00:15:21;;;;;;;67.87;32.90;;;;;;;;;;4969494;28;20413;-64
2023/06/23 00:17:49;;;;;;;70.77;33.83;;;;;;;;;;4970094;28;20497;-65
2023/06/23 00:20:16;;;;;;;66.97;33.87;;;;;;;;;;4969880;28;20524;-64
2023/06/23 00:22:44;;;;;;;62.50;31.13;;;;;;;;;;4953029;28;20497;-64
2023/06/23 00:25:12;;;;;;;75.50;33.87;;;;;;;;;;4970130;28;20061;-64
2023/06/23 00:27:41;;;;;;;112.33;41.13;;;;;;;;;;4970286;28;20182;-64
2023/06/23 00:30:08;;;;;;;91.07;36.23;;;;;;;;;;4969691;28;20047;-65
2023/06/23 00:32:34;;;;;;;96.67;41.30;;;;;;;;;;4968888;28;20133;-64
2023/06/23 00:35:00;;;;;;;88.83;39.13;;;;;;;;;;4970221;28;20058;-64
2023/06/23 00:37:26;;;;;;;78.70;36.70;;;;;;;;;;4969728;28;20061;-64
2023/06/23 00:39:52;;;;;;;92.17;40.17;;;;;;;;;;4969952;28;20043;-65
2023/06/23 00:42:19;;;;;;;82.67;37.63;;;;;;;;;;4969508;28;20497;-64
2023/06/23 00:44:45;;;;;;;72.73;35.20;;;;;;;;;;4969868;28;20098;-64
2023/06/23 00:47:11;;;;;;;68.17;32.97;;;;;;;;;;4969808;28;20055;-65
2023/06/23 00:49:37;;;;;;;85.93;39.90;;;;;;;;;;4969725;28;20469;-64
2023/06/23 00:52:04;;;;;;;83.30;37.70;;;;;;;;;;4968955;28;20058;-64
2023/06/23 00:54:34;;;;;;;160.47;53.23;;;;;;;;;;4968388;28;20150;-64
2023/06/23 00:57:00;;;;;;;91.57;40.83;;;;;;;;;;4952423;28;20050;-65
2023/06/23 00:59:29;;;;;;;91.17;41.37;;;;;;;;;;4969634;28;20141;-64
2023/06/23 01:01:57;;;;;;;89.83;40.43;;;;;;;;;;4970036;28;20160;-64
2023/06/23 01:04:24;;;;;;;78.27;37.77;;;;;;;;;;4969460;28;20416;-65
2023/06/23 01:07:10;;;;;;;100.70;42.73;;;;;;;;;;4969555;28;20058;-65
2023/06/23 01:09:46;;;;;;;89.93;42.03;;;;;;;;;;4959694;28;20527;-64
2023/06/23 01:12:16;;;;;;;73.60;37.80;;;;;;;;;;4967514;28;20101;-64
2023/06/23 01:15:00;;;;;;;91.60;41.67;;;;;;;;;;4969591;28;20054;-64
2023/06/23 01:17:40;;;;;;;61.57;34.43;;;;;;;;;;4969780;28;20628;-64
2023/06/23 01:20:21;;;;;;;73.27;38.17;;;;;;;;;;4969677;28;20054;-64
2023/06/23 01:22:50;;;;;;;70.00;37.33;;;;;;;;;;4969258;28;20453;-64
2023/06/23 01:25:33;;;;;;;75.20;39.23;;;;;;;;;;4969791;28;20094;-65
2023/06/23 01:28:20;;;;;;;60.80;35.15;;;;;;;;;;4969231;28;20078;-64
2023/06/23 01:30:48;;;;;;;83.63;41.90;;;;;;;;;;4971563;28;20263;-65
2023/06/23 01:33:17;;;;;;;87.37;42.70;;;;;;;;;;4973371;28;20069;-64
2023/06/23 01:35:44;;;;;;;73.30;40.20;;;;;;;;;;4972709;28;20077;-64
2023/06/23 01:38:12;;;;;;;110.23;49.20;;;;;;;;;;4973094;28;20047;-64
2023/06/23 01:40:40;;;;;;;137.10;53.77;;;;;;;;;;4973394;28;20051;-65
2023/06/23 01:43:07;;;;;;;120.77;47.93;;;;;;;;;;4972174;28;20580;-65
2023/06/23 01:45:34;;;;;;;65.60;37.07;;;;;;;;;;4972777;28;20062;-64
2023/06/23 01:48:06;;;;;;;83.60;42.77;;;;;;;;;;4970611;28;20516;-64
2023/06/23 01:50:32;;;;;;;86.10;42.60;;;;;;;;;;4973079;28;20129;-64
2023/06/23 01:53:00;;;;;;;113.57;49.03;;;;;;;;;;4972888;28;20512;-65
2023/06/23 01:55:27;;;;;;;83.17;43.27;;;;;;;;;;4972499;28;20117;-64
2023/06/23 01:57:54;;;;;;;132.67;53.17;;;;;;;;;;4973073;28;20043;-64
2023/06/23 02:00:21;;;;;;;92.97;47.80;;;;;;;;;;4972672;28;20455;-65
2023/06/23 02:02:49;;;;;;;100.90;48.70;;;;;;;;;;4973075;28;20517;-64
2023/06/23 02:05:16;;;;;;;75.40;42.90;;;;;;;;;;4972721;28;20097;-64
2023/06/23 02:07:43;;;;;;;86.20;47.20;;;;;;;;;;4972391;28;20059;-64
2023/06/23 02:10:10;;;;;;;78.30;42.83;;;;;;;;;;4960044;28;20654;-65
2023/06/23 02:12:38;;;;;;;112.40;53.70;;;;;;;;;;4953479;29;20058;-64
2023/06/23 02:15:05;;;;;;;132.53;56.33;;;;;;;;;;4953493;29;20050;-64
2023/06/23 02:17:32;;;;;;;113.70;52.87;;;;;;;;;;4953086;29;20055;-64
2023/06/23 02:19:59;;;;;;;102.23;47.70;;;;;;;;;;4952660;29;20051;-64
2023/06/23 02:22:30;;;;;;;136.93;58.63;;;;;;;;;;4953201;29;20142;-64
2023/06/23 02:24:57;;;;;;;185.63;67.20;;;;;;;;;;4956881;28;20073;-65
2023/06/23 02:27:23;;;;;;;99.13;51.53;;;;;;;;;;4972579;28;20046;-64
2023/06/23 02:29:50;;;;;;;149.53;62.43;;;;;;;;;;4971891;28;20050;-64
2023/06/23 02:32:17;;;;;;;115.03;55.77;;;;;;;;;;4972500;28;20473;-64
2023/06/23 02:34:49;;;;;;;103.27;53.83;;;;;;;;;;4955999;28;20577;-64
2023/06/23 02:37:17;;;;;;;113.97;56.33;;;;;;;;;;4952933;29;20039;-64
2023/06/23 02:39:47;;;;;;;114.93;56.43;;;;;;;;;;4952781;29;20134;-64
2023/06/23 02:42:14;;;;;;;128.97;61.73;;;;;;;;;;4952448;28;20043;-64
2023/06/23 02:44:43;;;;;;;116.63;58.53;;;;;;;;;;4952462;29;20088;-64
2023/06/23 02:47:11;;;;;;;155.57;67.90;;;;;;;;;;4952480;28;20035;-65
2023/06/23 02:49:38;;;;;;;176.60;74.00;;;;;;;;;;4935576;29;20498;-64
2023/06/23 02:52:05;;;;;;;125.90;59.43;;;;;;;;;;4952707;29;20054;-64
2023/06/23 02:54:32;;;;;;;134.03;63.00;;;;;;;;;;4953876;28;20051;-64
2023/06/23 02:56:59;;;;;;;115.60;59.00;;;;;;;;;;4952726;29;20039;-64
2023/06/23 02:59:26;;;;;;;120.30;61.33;;;;;;;;;;4952443;29;20047;-64
2023/06/23 03:01:53;;;;;;;171.77;72.43;;;;;;;;;;4952684;29;20043;-64
2023/06/23 03:04:19;;;;;;;204.53;80.30;;;;;;;;;;4952497;29;20557;-64
2023/06/23 03:06:45;;;;;;;221.10;85.47;;;;;;;;;;4935294;29;20225;-65
2023/06/23 03:09:12;;;;;;;123.43;57.67;;;;;;;;;;4969628;28;20059;-64
2023/06/23 03:11:38;;;;;;;95.83;53.93;;;;;;;;;;4971163;28;20489;-64
2023/06/23 03:14:04;;;;;;;228.93;84.17;;;;;;;;;;4971436;28;20051;-64
2023/06/23 03:16:30;;;;;;;157.60;70.47;;;;;;;;;;4971606;28;20078;-64
2023/06/23 03:19:11;;;;;;;127.43;61.40;;;;;;;;;;4971231;28;20097;-64
2023/06/23 03:21:38;;;;;;;108.03;57.60;;;;;;;;;;4954356;28;20082;-64
2023/06/23 03:24:07;;;;;;;153.40;68.67;;;;;;;;;;4970935;28;20055;-64
2023/06/23 03:26:36;;;;;;;165.53;72.07;;;;;;;;;;4971231;28;20062;-64
2023/06/23 03:29:03;;;;;;;90.50;50.10;;;;;;;;;;4953908;28;20055;-64
2023/06/23 03:31:30;;;;;;;107.83;56.00;;;;;;;;;;4970177;28;20150;-64
2023/06/23 03:33:56;;;;;;;99.13;54.07;;;;;;;;;;4970564;28;20047;-64
2023/06/23 03:36:26;;;;;;;96.23;52.23;;;;;;;;;;4970219;28;20509;-64
2023/06/23 03:39:04;;;;;;;142.03;60.93;;;;;;;;;;4970780;28;20130;-65
2023/06/23 03:41:31;;;;;;;181.30;70.17;;;;;;;;;;4971001;28;20050;-65
2023/06/23 03:43:59;;;;;;;179.13;70.63;;;;;;;;;;4971100;28;20047;-64
2023/06/23 03:46:43;;;;;;;129.40;58.93;;;;;;;;;;4970306;28;20047;-64
2023/06/23 03:49:10;;;;;;;214.33;75.37;;;;;;;;;;4970890;28;20054;-64
2023/06/23 03:51:39;;;;;;;93.37;48.33;;;;;;;;;;4969875;28;20069;-64
2023/06/23 03:54:05;;;;;;;110.03;55.17;;;;;;;;;;4970002;28;20047;-64
2023/06/23 03:56:34;;;;;;;130.83;57.63;;;;;;;;;;4969927;28;20057;-64
2023/06/23 03:59:02;;;;;;;91.17;46.37;;;;;;;;;;4970714;28;20082;-64
2023/06/23 04:01:29;;;;;;;120.63;55.00;;;;;;;;;;4970748;28;20051;-64
2023/06/23 04:03:56;;;;;;;81.70;44.80;;;;;;;;;;4970597;28;20051;-64
2023/06/23 04:06:22;;;;;;;78.97;43.37;;;;;;;;;;4969998;28;20042;-64
2023/06/23 04:08:50;;;;;;;154.73;60.67;;;;;;;;;;4970214;28;20086;-64
2023/06/23 04:11:17;;;;;;;129.13;58.93;;;;;;;;;;4969664;28;20047;-64
2023/06/23 04:13:43;;;;;;;160.00;60.50;;;;;;;;;;4970044;28;20050;-65
2023/06/23 04:16:10;;;;;;;85.53;44.40;;;;;;;;;;4960973;28;20079;-65
2023/06/23 04:18:37;;;;;;;177.77;65.27;;;;;;;;;;4950857;28;20051;-65
2023/06/23 04:21:04;;;;;;;83.90;44.07;;;;;;;;;;4950554;28;20082;-64
2023/06/23 04:23:31;;;;;;;126.97;53.57;;;;;;;;;;4950723;29;20070;-65
2023/06/23 04:25:59;;;;;;;80.73;44.33;;;;;;;;;;4950288;29;20101;-64
2023/06/23 04:28:25;;;;;;;162.97;66.47;;;;;;;;;;4950398;29;20043;-64
2023/06/23 04:30:52;;;;;;;74.40;43.03;;;;;;;;;;4950920;29;20043;-64
2023/06/23 04:33:18;;;;;;;109.30;50.67;;;;;;;;;;4950046;29;20074;-65
2023/06/23 04:35:44;;;;;;;151.67;59.73;;;;;;;;;;4950854;29;20431;-65
2023/06/23 04:38:14;;;;;;;100.73;49.80;;;;;;;;;;4950639;29;20058;-65
2023/06/23 04:40:47;;;;;;;93.10;46.93;;;;;;;;;;4933324;29;20051;-64
2023/06/23 04:43:14;;;;;;;115.57;55.55;;;;;;;;;;4950585;29;20051;-65
2023/06/23 04:45:52;;;;;;;88.67;47.87;;;;;;;;;;4949850;29;20055;-64
2023/06/23 04:48:21;;;;;;;87.30;47.83;;;;;;;;;;4950316;29;20051;-65
2023/06/23 04:50:48;;;;;;;71.47;42.40;;;;;;;;;;4961119;28;20042;-64
2023/06/23 04:53:16;;;;;;;98.13;45.40;;;;;;;;;;4953499;28;20504;-64
2023/06/23 04:55:44;;;;;;;149.23;64.07;;;;;;;;;;4950475;29;20047;-64
2023/06/23 04:58:11;;;;;;;66.83;39.87;;;;;;;;;;4949673;29;20085;-64
2023/06/23 05:00:38;;;;;;;79.67;45.17;;;;;;;;;;4950482;29;20079;-65
2023/06/23 05:03:04;;;;;;;83.27;46.10;;;;;;;;;;4950079;29;20524;-65
2023/06/23 05:05:31;;;;;;;134.87;58.90;;;;;;;;;;4949429;28;20047;-64
2023/06/23 05:07:58;;;;;;;144.90;60.97;;;;;;;;;;4958008;28;20137;-64
2023/06/23 05:10:25;;;;;;;71.33;41.70;;;;;;;;;;4969532;28;20514;-65
2023/06/23 05:12:53;;;;;;;106.57;52.03;;;;;;;;;;4968926;28;20571;-64
2023/06/23 05:15:20;;;;;;;87.30;48.10;;;;;;;;;;4967849;28;20043;-64
2023/06/23 05:17:48;;;;;;;86.03;48.30;;;;;;;;;;4968992;28;20047;-65
2023/06/23 05:20:15;;;;;;;134.70;60.70;;;;;;;;;;4968029;28;20047;-64
2023/06/23 05:22:42;;;;;;;143.17;63.57;;;;;;;;;;4968665;28;20047;-64
2023/06/23 05:25:09;;;;;;;80.37;48.57;;;;;;;;;;4952401;28;20098;-64
2023/06/23 05:27:36;;;;;;;101.90;52.63;;;;;;;;;;4969076;28;20049;-64
2023/06/23 05:30:04;;;;;;;115.20;56.43;;;;;;;;;;4968024;28;20124;-65
2023/06/23 05:32:32;;;;;;;115.33;57.17;;;;;;;;;;4968990;28;20058;-64
2023/06/23 05:35:00;;;;;;;86.20;49.07;;;;;;;;;;4960386;28;20057;-64
2023/06/23 05:37:27;;;;;;;119.77;57.20;;;;;;;;;;4949986;29;20126;-65
2023/06/23 05:39:53;;;;;;;73.43;44.60;;;;;;;;;;4950060;29;20055;-64
2023/06/23 05:42:19;;;;;;;117.53;56.13;;;;;;;;;;4950053;29;20043;-64
2023/06/23 05:44:46;;;;;;;64.27;43.67;;;;;;;;;;4963653;28;20052;-64
2023/06/23 05:47:18;;;;;;;114.87;58.03;;;;;;;;;;4967353;28;20577;-65
2023/06/23 05:49:44;;;;;;;92.30;51.33;;;;;;;;;;4968210;28;20515;-65
2023/06/23 05:52:11;;;;;;;84.03;47.97;;;;;;;;;;4969264;28;20042;-64
2023/06/23 05:54:39;;;;;;;73.23;44.17;;;;;;;;;;4969007;28;20101;-65
2023/06/23 05:57:07;;;;;;;96.40;53.30;;;;;;;;;;4969022;28;20057;-64
2023/06/23 05:59:36;;;;;;;98.87;55.10;;;;;;;;;;4967665;28;20053;-64
2023/06/23 06:02:04;;;;;;;86.70;47.90;;;;;;;;;;4950190;28;20059;-64
2023/06/23 06:04:32;;;;;;;85.60;48.13;;;;;;;;;;4966759;28;20130;-65
2023/06/23 06:06:59;;;;;;;77.00;46.23;;;;;;;;;;4951753;28;20508;-64
2023/06/23 06:09:27;;;;;;;59.53;38.77;;;;;;;;;;4968942;28;20046;-65
2023/06/23 06:11:54;;;;;;;64.17;40.97;;;;;;;;;;4968722;28;20097;-65
2023/06/23 06:14:21;;;;;;;53.67;37.23;;;;;;;;;;4969000;28;20061;-65
2023/06/23 06:16:47;;;;;;;53.20;37.70;;;;;;;;;;4971152;28;20085;-65
2023/06/23 06:19:14;;;;;;;81.80;45.27;;;;;;;;;;4972514;28;20054;-65
2023/06/23 06:21:41;;;;;;;57.87;37.73;;;;;;;;;;4955299;28;20051;-64
2023/06/23 06:24:10;;;;;;;54.77;34.30;;;;;;;;;;4972262;28;20121;-65
2023/06/23 06:26:36;;;;;;;46.00;31.77;;;;;;;;;;4971841;28;20421;-65
2023/06/23 06:29:05;;;;;;;58.43;34.53;;;;;;;;;;4961593;28;20588;-65
2023/06/23 06:31:33;;;;;;;45.37;32.10;;;;;;;;;;4953102;29;20098;-65
2023/06/23 06:34:00;;;;;;;47.40;32.80;;;;;;;;;;4952812;29;20047;-65
2023/06/23 06:36:27;;;;;;;59.33;37.33;;;;;;;;;;4952078;29;20402;-65
2023/06/23 06:38:53;;;;;;;35.20;26.27;;;;;;;;;;4952746;29;20069;-65
2023/06/23 06:41:19;;;;;;;54.73;31.00;;;;;;;;;;4952848;29;20050;-65
2023/06/23 06:43:46;;;;;;;43.83;27.87;;;;;;;;;;4952604;29;20043;-65
2023/06/23 06:46:12;;;;;;;31.47;24.53;;;;;;;;;;4952262;29;20070;-65
2023/06/23 06:48:46;;;;;;;35.57;24.23;;;;;;;;;;4952324;29;20047;-65
2023/06/23 06:51:12;;;;;;;46.23;26.03;;;;;;;;;;4952653;28;20055;-65
2023/06/23 06:53:38;;;;;;;41.00;25.50;;;;;;;;;;4950992;28;20055;-65
2023/06/23 06:56:05;;;;;;;46.40;26.63;;;;;;;;;;4951316;28;20039;-65
2023/06/23 06:58:31;;;;;;;33.20;20.50;;;;;;;;;;4950305;29;20047;-65
2023/06/23 07:00:58;;;;;;;25.17;19.10;;;;;;;;;;4950866;29;20096;-64
2023/06/23 07:03:25;;;;;;;27.23;19.03;;;;;;;;;;4950629;29;20055;-65
2023/06/23 07:05:51;;;;;;;28.20;18.20;;;;;;;;;;4950325;29;20062;-65
2023/06/23 07:08:17;;;;;;;24.87;18.07;;;;;;;;;;4961125;28;20047;-64
2023/06/23 07:10:43;;;;;;;20.27;15.00;;;;;;;;;;4969054;28;20201;-65
2023/06/23 07:13:09;;;;;;;15.70;12.43;;;;;;;;;;4970378;28;20674;-65
2023/06/23 07:15:35;;;;;;;17.60;13.30;;;;;;;;;;4971310;28;20501;-65
2023/06/23 07:18:01;;;;;;;16.70;12.40;;;;;;;;;;4971248;28;20043;-65
2023/06/23 07:20:27;;;;;;;23.60;14.87;;;;;;;;;;4953166;28;20054;-65
2023/06/23 07:22:53;;;;;;;15.30;10.70;;;;;;;;;;4971221;28;20581;-65
2023/06/23 07:25:19;;;;;;;16.03;13.67;;;;;;;;;;4970981;28;20512;-65
2023/06/23 07:27:48;;;;;;;18.53;13.83;;;;;;;;;;4970357;28;20051;-65
2023/06/23 07:30:14;;;;;;;13.03;10.73;;;;;;;;;;4970700;28;20063;-65
2023/06/23 07:32:40;;;;;;;20.50;12.00;;;;;;;;;;4970694;28;20050;-65
2023/06/23 07:35:06;;;;;;;13.13;10.73;;;;;;;;;;4970865;28;20055;-64
2023/06/23 07:37:32;;;;;;;11.17;8.90;;;;;;;;;;4970569;28;20043;-65
2023/06/23 07:39:58;;;;;;;10.80;8.57;;;;;;;;;;4953477;28;20047;-65
2023/06/23 07:42:26;;;;;;;8.43;6.67;;;;;;;;;;4970823;28;20050;-64
2023/06/23 07:44:52;;;;;;;8.40;7.00;;;;;;;;;;4970736;28;20421;-64
2023/06/23 07:47:18;;;;;;;9.33;6.93;;;;;;;;;;4970454;28;20054;-64
2023/06/23 07:49:44;;;;;;;8.70;7.07;;;;;;;;;;4970700;28;20051;-65
2023/06/23 07:52:10;;;;;;;8.63;6.10;;;;;;;;;;4969952;28;20058;-64
2023/06/23 07:54:36;;;;;;;9.93;5.80;;;;;;;;;;4970175;28;20050;-65
2023/06/23 07:57:07;;;;;;;8.50;5.37;;;;;;;;;;4970401;28;20109;-64
2023/06/23 07:59:33;;;;;;;6.60;5.50;;;;;;;;;;4970077;28;20054;-65
2023/06/23 08:01:59;;;;;;;5.80;4.93;;;;;;;;;;4970112;28;20042;-65
2023/06/23 08:04:25;;;;;;;6.37;4.37;;;;;;;;;;4970437;28;20089;-65
2023/06/23 08:06:51;;;;;;;6.17;4.93;;;;;;;;;;4970347;28;20046;-65
2023/06/23 08:09:17;;;;;;;10.20;5.37;;;;;;;;;;4970804;28;20122;-65
2023/06/23 08:11:43;;;;;;;7.13;4.80;;;;;;;;;;4953046;28;20093;-65
2023/06/23 08:14:10;;;;;;;8.83;5.30;;;;;;;;;;4969737;28;20129;-65
2023/06/23 08:16:36;;;;;;;5.23;3.97;;;;;;;;;;4970358;28;20046;-65
2023/06/23 08:19:02;;;;;;;6.93;3.60;;;;;;;;;;4970002;28;20051;-65
2023/06/23 08:21:29;;;;;;;6.73;4.30;;;;;;;;;;4969393;28;20047;-65
2023/06/23 08:23:54;;;;;;;8.47;3.80;;;;;;;;;;4969827;28;20508;-65
2023/06/23 08:26:21;;;;;;;5.07;3.70;;;;;;;;;;4969913;28;20138;-65
2023/06/23 08:28:47;;;;;;;7.87;4.93;;;;;;;;;;4969128;28;20134;-66
2023/06/23 08:31:13;;;;;;;5.57;3.97;;;;;;;;;;4969645;28;20133;-65
2023/06/23 08:33:40;;;;;;;4.90;3.23;;;;;;;;;;4969591;28;20051;-65
2023/06/23 08:36:06;;;;;;;7.13;3.20;;;;;;;;;;4969341;28;20065;-65
2023/06/23 08:38:32;;;;;;;6.80;4.33;;;;;;;;;;4969389;28;20401;-65
2023/06/23 08:40:58;;;;;;;6.22;3.85;;;;;;;;;;4969457;28;20050;-66
2023/06/23 08:43:28;;;;;;;7.57;4.00;;;;;;;;;;4969599;28;20049;-65
2023/06/23 08:45:58;;;;;;;6.00;4.80;;;;;;;;;;4969681;28;20081;-65
2023/06/23 08:48:25;;;;;;;4.93;3.90;;;;;;;;;;4969552;28;20066;-65
2023/06/23 08:50:53;;;;;;;6.70;4.35;;;;;;;;;;4969472;28;20047;-65
2023/06/23 08:53:21;;;;;;;6.30;3.88;;;;;;;;;;4969338;28;20054;-65
2023/06/23 08:55:47;;;;;;;5.88;4.35;;;;;;;;;;4969382;28;20046;-66
2023/06/23 08:58:13;;;;;;;5.18;3.75;;;;;;;;;;4969410;28;20546;-65
2023/06/23 09:00:40;;;;;;;7.60;3.65;;;;;;;;;;4968903;28;20046;-65
2023/06/23 09:03:06;;;;;;;5.47;3.47;;;;;;;;;;4969303;28;20058;-65
2023/06/23 09:05:32;;;;;;;5.63;2.88;;;;;;;;;;4969522;28;20053;-65
2023/06/23 09:07:58;;;;;;;6.05;3.85;;;;;;;;;;4969451;28;20433;-65
2023/06/23 09:10:24;;;;;;;4.22;3.42;;;;;;;;;;4969091;28;20058;-64
2023/06/23 09:13:02;;;;;;;5.70;4.00;;;;;;;;;;4969358;28;20425;-65
2023/06/23 09:15:28;;;;;;;5.20;3.53;;;;;;;;;;4968908;28;20570;-64
2023/06/23 09:17:54;;;;;;;9.75;3.28;;;;;;;;;;4969393;28;20146;-64
2023/06/23 09:20:20;;;;;;;5.20;3.75;;;;;;;;;;4969093;28;20049;-63
2023/06/23 09:22:47;;;;;;;4.93;3.30;;;;;;;;;;4969080;28;20511;-63
2023/06/23 09:25:33;;;;;;;4.93;3.28;;;;;;;;;;4968567;28;20055;-63
2023/06/23 09:27:59;;;;;;;5.70;4.45;;;;;;;;;;4969024;28;20050;-63
2023/06/23 09:30:35;;;;;;;6.43;4.75;;;;;;;;;;4968885;28;20051;-63
2023/06/23 09:33:07;;;;;;;6.85;3.80;;;;;;;;;;4968959;28;20047;-62
2023/06/23 09:35:33;;;;;;;4.50;3.83;;;;;;;;;;4968359;28;20049;-62
2023/06/23 09:37:59;;;;;;;4.65;3.35;;;;;;;;;;4968904;28;20137;-62
2023/06/23 09:40:29;;;;;;;4.25;3.03;;;;;;;;;;4969144;28;20039;-62
2023/06/23 09:42:58;;;;;;;4.03;3.17;;;;;;;;;;4968924;28;20069;-62
2023/06/23 09:45:25;;;;;;;6.28;3.67;;;;;;;;;;4968567;28;20159;-62
2023/06/23 09:47:51;;;;;;;4.35;3.10;;;;;;;;;;4968533;28;20420;-62
2023/06/23 09:50:20;;;;;;;3.92;3.42;;;;;;;;;;4968900;28;20129;-60
2023/06/23 09:52:46;;;;;;;6.35;3.03;;;;;;;;;;4972690;28;20097;-60
2023/06/23 09:55:12;;;;;;;4.25;2.67;;;;;;;;;;4972019;28;20054;-60
2023/06/23 09:57:38;;;;;;;4.55;3.22;;;;;;;;;;4972460;28;20145;-61
2023/06/23 10:00:08;;;;;;;5.05;2.95;;;;;;;;;;4972404;28;20477;-61
2023/06/23 10:02:38;;;;;;;5.50;3.08;;;;;;;;;;4972498;28;20055;-61
2023/06/23 10:05:05;;;;;;;7.05;3.40;;;;;;;;;;4972530;28;20598;-61
2023/06/23 10:07:32;;;;;;;3.97;3.28;;;;;;;;;;4971643;28;20061;-61
2023/06/23 10:09:58;;;;;;;5.53;3.10;;;;;;;;;;4972258;28;20050;-61
2023/06/23 10:12:28;;;;;;;6.03;3.20;;;;;;;;;;4972134;28;20039;-61
2023/06/23 10:14:55;;;;;;;4.30;3.03;;;;;;;;;;4972574;28;20058;-60
2023/06/23 10:17:21;;;;;;;5.38;3.00;;;;;;;;;;4970136;28;20058;-60
2023/06/23 10:19:48;;;;;;;4.43;2.70;;;;;;;;;;4970172;28;20031;-61
2023/06/23 10:22:16;;;;;;;6.28;2.80;;;;;;;;;;4972326;28;20523;-60
2023/06/23 10:24:52;;;;;;;4.82;3.33;;;;;;;;;;4971777;28;20047;-60
2023/06/23 10:27:26;;;;;;;5.43;3.13;;;;;;;;;;4958046;28;20055;-60
2023/06/23 10:29:56;;;;;;;6.80;3.67;;;;;;;;;;4936007;29;20133;-60
2023/06/23 10:32:27;;;;;;;9.15;3.38;;;;;;;;;;4954390;28;20051;-61
2023/06/23 10:34:55;;;;;;;5.57;4.30;;;;;;;;;;4952157;28;20058;-61
2023/06/23 10:37:22;;;;;;;6.57;4.25;;;;;;;;;;4956450;28;20039;-61
2023/06/23 10:39:52;;;;;;;7.72;4.20;;;;;;;;;;4971648;28;20050;-61
2023/06/23 10:42:21;;;;;;;7.47;4.32;;;;;;;;;;4969191;28;20116;-61
2023/06/23 10:44:49;;;;;;;5.78;3.13;;;;;;;;;;4967170;28;20149;-61
2023/06/23 10:47:16;;;;;;;8.32;3.53;;;;;;;;;;4971509;28;20053;-61
2023/06/23 10:49:42;;;;;;;4.88;3.28;;;;;;;;;;4970643;28;20106;-61
2023/06/23 10:52:09;;;;;;;5.18;3.47;;;;;;;;;;4970400;28;20114;-61
2023/06/23 10:54:35;;;;;;;4.85;3.67;;;;;;;;;;4971895;28;20524;-61
2023/06/23 10:57:08;;;;;;;5.28;3.35;;;;;;;;;;4961786;28;20051;-61
2023/06/23 10:59:34;;;;;;;6.65;3.75;;;;;;;;;;4970550;28;20047;-60
2023/06/23 11:02:00;;;;;;;7.47;3.83;;;;;;;;;;4970677;28;20058;-61
2023/06/23 11:04:27;;;;;;;5.00;2.85;;;;;;;;;;4970030;28;20046;-61
2023/06/23 11:07:09;;;;;;;4.32;3.13;;;;;;;;;;4958214;28;20054;-61
2023/06/23 11:09:52;;;;;;;6.60;3.20;;;;;;;;;;4972000;28;20129;-61
2023/06/23 11:12:36;;;;;;;3.97;2.72;;;;;;;;;;4952098;28;20134;-61
2023/06/23 11:15:12;;;;;;;4.80;2.80;;;;;;;;;;4964210;28;20145;-63
2023/06/23 11:17:45;;;;;;;6.03;2.75;;;;;;;;;;4971562;28;20051;-62
2023/06/23 11:20:21;;;;;;;5.13;2.78;;;;;;;;;;4971665;28;20572;-62
2023/06/23 11:22:58;;;;;;;6.03;2.88;;;;;;;;;;4971425;28;20387;-62
2023/06/23 11:25:31;;;;;;;5.97;2.95;;;;;;;;;;4971671;28;20137;-61
2023/06/23 11:28:16;;;;;;;5.53;2.88;;;;;;;;;;4971011;28;20038;-61
2023/06/23 11:31:00;;;;;;;4.15;2.40;;;;;;;;;;4970538;28;20074;-61
2023/06/23 11:33:26;;;;;;;5.80;3.00;;;;;;;;;;4970555;28;20082;-62
2023/06/23 11:35:53;;;;;;;5.88;3.20;;;;;;;;;;4969842;28;20058;-62
2023/06/23 11:38:20;;;;;;;10.45;2.55;;;;;;;;;;4969185;28;20050;-62
2023/06/23 11:40:46;;;;;;;4.03;3.45;;;;;;;;;;4969945;28;20057;-62
2023/06/23 11:43:14;;;;;;;5.40;2.88;;;;;;;;;;4970828;28;20133;-62
2023/06/23 11:45:56;;;;;;;5.45;3.13;;;;;;;;;;4971082;28;20038;-61
2023/06/23 11:48:28;;;;;;;3.75;2.55;;;;;;;;;;4971128;28;20047;-62
2023/06/23 11:50:58;;;;;;;5.05;3.35;;;;;;;;;;4969325;28;20405;-62
2023/06/23 11:53:24;;;;;;;6.75;3.20;;;;;;;;;;4970299;28;20043;-62
2023/06/23 11:55:50;;;;;;;5.10;3.03;;;;;;;;;;4967700;28;20035;-63
2023/06/23 11:58:17;;;;;;;5.35;2.90;;;;;;;;;;4970380;28;20049;-63
2023/06/23 12:00:43;;;;;;;4.53;3.22;;;;;;;;;;4970626;28;20078;-62
2023/06/23 12:03:12;;;;;;;5.20;2.85;;;;;;;;;;4968789;28;20070;-62
2023/06/23 12:05:41;;;;;;;3.92;3.17;;;;;;;;;;4970645;28;20101;-62
2023/06/23 12:08:07;;;;;;;4.95;3.60;;;;;;;;;;4970301;28;20062;-62
2023/06/23 12:10:37;;;;;;;7.60;3.53;;;;;;;;;;4970121;28;20097;-62
2023/06/23 12:13:03;;;;;;;4.35;3.15;;;;;;;;;;4968580;28;20051;-62
2023/06/23 12:15:29;;;;;;;6.80;3.40;;;;;;;;;;4967606;28;20501;-62
2023/06/23 12:17:58;;;;;;;5.93;3.70;;;;;;;;;;4970302;28;20130;-62
2023/06/23 12:20:24;;;;;;;6.38;3.28;;;;;;;;;;4968868;28;20054;-62
2023/06/23 12:22:50;;;;;;;5.72;3.47;;;;;;;;;;4970129;28;20042;-62
2023/06/23 12:25:18;;;;;;;7.03;3.45;;;;;;;;;;4969954;28;20074;-62
2023/06/23 12:27:51;;;;;;;4.68;3.20;;;;;;;;;;4969854;28;20523;-62
2023/06/23 12:30:18;;;;;;;4.85;2.47;;;;;;;;;;4969538;28;20707;-62
2023/06/23 12:32:44;;;;;;;6.28;2.70;;;;;;;;;;4969809;28;20472;-62
2023/06/23 12:35:10;;;;;;;3.90;2.47;;;;;;;;;;4969316;28;20047;-62
2023/06/23 12:37:46;;;;;;;5.03;2.78;;;;;;;;;;4969863;28;20066;-62
2023/06/23 12:40:28;;;;;;;4.40;2.30;;;;;;;;;;4969740;28;20109;-63
2023/06/23 12:42:58;;;;;;;5.65;3.17;;;;;;;;;;4969631;28;20093;-63
2023/06/23 12:45:25;;;;;;;3.47;2.28;;;;;;;;;;4969378;28;20374;-63
2023/06/23 12:47:57;;;;;;;3.83;2.42;;;;;;;;;;4969140;28;20051;-63
2023/06/23 12:50:29;;;;;;;3.58;2.40;;;;;;;;;;4969442;28;20130;-62
2023/06/23 12:52:56;;;;;;;5.05;2.88;;;;;;;;;;4969386;28;20461;-63
2023/06/23 12:55:22;;;;;;;4.07;2.40;;;;;;;;;;4969353;28;20133;-63
2023/06/23 12:57:49;;;;;;;3.65;2.25;;;;;;;;;;4968745;28;20081;-63
2023/06/23 13:00:16;;;;;;;3.60;2.38;;;;;;;;;;4969352;28;20061;-63
2023/06/23 13:02:42;;;;;;;5.50;2.72;;;;;;;;;;4969649;28;20058;-63
2023/06/23 13:05:08;;;;;;;5.03;2.97;;;;;;;;;;4969341;28;20039;-62
2023/06/23 13:07:35;;;;;;;5.20;3.05;;;;;;;;;;4968590;28;20469;-62
2023/06/23 13:10:02;;;;;;;4.00;2.80;;;;;;;;;;4969291;28;20543;-62
2023/06/23 13:12:28;;;;;;;5.05;2.65;;;;;;;;;;4969268;28;20046;-62
2023/06/23 13:14:54;;;;;;;4.32;2.67;;;;;;;;;;4969097;28;20051;-62
2023/06/23 13:17:20;;;;;;;2.97;2.53;;;;;;;;;;4969140;28;20051;-63
2023/06/23 13:19:46;;;;;;;3.80;2.78;;;;;;;;;;4969087;28;20047;-62
2023/06/23 13:22:12;;;;;;;4.32;2.90;;;;;;;;;;4968895;28;20042;-63
2023/06/23 13:24:40;;;;;;;5.32;2.80;;;;;;;;;;4969038;28;20053;-62
2023/06/23 13:27:08;;;;;;;4.95;2.40;;;;;;;;;;4972111;28;20046;-62
2023/06/23 13:29:37;;;;;;;5.07;2.65;;;;;;;;;;4973072;28;20465;-63
2023/06/23 13:32:06;;;;;;;4.75;2.75;;;;;;;;;;4972797;28;20051;-62
2023/06/23 13:34:36;;;;;;;4.50;2.42;;;;;;;;;;4972737;28;20493;-63
2023/06/23 13:37:05;;;;;;;4.60;2.70;;;;;;;;;;4972905;28;20093;-63
2023/06/23 13:39:31;;;;;;;4.15;2.80;;;;;;;;;;4972656;28;20074;-62
2023/06/23 13:41:57;;;;;;;6.55;2.85;;;;;;;;;;4972791;28;20097;-63
2023/06/23 13:44:24;;;;;;;5.45;2.30;;;;;;;;;;4972900;28;20046;-62
2023/06/23 13:46:50;;;;;;;10.68;3.00;;;;;;;;;;4972035;28;20576;-63
2023/06/23 13:49:16;;;;;;;5.10;2.75;;;;;;;;;;4972524;28;20082;-63
2023/06/23 13:51:42;;;;;;;4.63;2.40;;;;;;;;;;4972944;28;20049;-62
2023/06/23 13:54:08;;;;;;;6.82;2.80;;;;;;;;;;4972104;28;20054;-63
2023/06/23 13:56:35;;;;;;;4.57;2.40;;;;;;;;;;4955380;28;20050;-62
2023/06/23 13:59:01;;;;;;;3.65;2.47;;;;;;;;;;4972672;28;20280;-63
2023/06/23 14:01:28;;;;;;;6.68;3.08;;;;;;;;;;4972852;28;20043;-63
2023/06/23 14:03:54;;;;;;;6.10;2.50;;;;;;;;;;4971885;28;20531;-63
2023/06/23 14:06:20;;;;;;;3.80;2.50;;;;;;;;;;4972584;28;20072;-62
2023/06/23 14:08:46;;;;;;;7.50;2.60;;;;;;;;;;4972566;28;20112;-63
2023/06/23 14:11:12;;;;;;;2.78;2.20;;;;;;;;;;4971833;28;20449;-63
2023/06/23 14:13:38;;;;;;;3.83;2.58;;;;;;;;;;4972084;28;20469;-62
2023/06/23 14:16:06;;;;;;;3.95;2.50;;;;;;;;;;4972484;28;20054;-62
2023/06/23 14:18:32;;;;;;;3.70;2.58;;;;;;;;;;4972383;28;20513;-62
2023/06/23 14:20:58;;;;;;;4.18;2.70;;;;;;;;;;4972011;28;20073;-62
2023/06/23 14:23:24;;;;;;;3.13;2.38;;;;;;;;;;4972113;28;20497;-62
2023/06/23 14:25:50;;;;;;;3.60;2.70;;;;;;;;;;4971856;28;20181;-63
2023/06/23 14:28:16;;;;;;;3.95;2.58;;;;;;;;;;4971814;28;20085;-62
2023/06/23 14:30:42;;;;;;;4.93;2.70;;;;;;;;;;4971776;28;20046;-62